Time;durP1;ratioP1;P1;durP2;ratioP2;P2;SDS_P1;SDS_P2;PMS_P1;PMS_P2;Temp;Humidity;BMP_temperature;BMP_pressure;BME280_temperature;BME280_humidity;BME280_pressure;Samples;Min_cycle;Max_cycle;Signal;HPM_P1;HPM_P2
2021/09/01 00:01:29;;;;;;;;;13.75;13.25;;;;;22.76;48.69;102125.34;5062545;28;45428;-58
2021/09/01 00:03:54;;;;;;;;;12.75;12.00;;;;;22.76;48.57;102122.69;5062542;28;45363;-53
2021/09/01 00:06:20;;;;;;;;;14.25;11.25;;;;;22.76;48.54;102127.09;5062740;28;45983;-53
2021/09/01 00:08:50;;;;;;;;;16.25;13.50;;;;;22.76;48.48;102133.25;5062519;28;47519;-58
2021/09/01 00:11:17;;;;;;;;;14.00;14.00;;;;;22.76;48.60;102129.75;5044677;28;45788;-56
2021/09/01 00:13:43;;;;;;;;;13.25;11.00;;;;;22.75;48.82;102128.03;5062904;28;45334;-56
2021/09/01 00:16:25;;;;;;;;;16.00;13.75;;;;;22.75;48.63;102128.91;5062593;28;45264;-53
2021/09/01 00:18:51;;;;;;;;;15.00;14.75;;;;;22.76;48.82;102121.81;5062109;28;46280;-56
2021/09/01 00:21:16;;;;;;;;;13.25;12.25;;;;;22.74;48.42;102129.81;5062555;28;45383;-53
2021/09/01 00:23:41;;;;;;;;;12.50;11.00;;;;;22.75;48.46;102131.53;5062340;28;47031;-57
2021/09/01 00:26:07;;;;;;;;;15.00;14.50;;;;;22.76;48.61;102133.25;5062619;28;45933;-56
2021/09/01 00:28:32;;;;;;;;;10.25;10.25;;;;;22.74;48.64;102134.25;5062119;28;45902;-57
2021/09/01 00:30:57;;;;;;;;;13.50;12.25;;;;;22.75;48.78;102134.19;5062043;28;45257;-58
2021/09/01 00:33:23;;;;;;;;;11.25;11.00;;;;;22.75;48.78;102141.25;5061936;28;45289;-55
2021/09/01 00:35:48;;;;;;;;;12.50;12.50;;;;;22.76;48.51;102150.88;5057615;28;45604;-53
2021/09/01 00:38:13;;;;;;;;;12.25;12.25;;;;;22.73;48.77;102127.22;5058940;28;46198;-55
2021/09/01 00:40:39;;;;;;;;;12.50;12.50;;;;;22.74;48.77;102136.88;5058598;28;45229;-56
2021/09/01 00:43:04;;;;;;;;;9.50;9.50;;;;;22.75;48.55;102134.19;5058831;28;45372;-55
2021/09/01 00:45:29;;;;;;;;;11.00;10.00;;;;;22.75;48.93;102138.59;5058935;28;45545;-54
2021/09/01 00:47:55;;;;;;;;;14.00;12.25;;;;;22.74;48.93;102131.59;5058581;28;45605;-54
2021/09/01 00:50:20;;;;;;;;;11.75;11.25;;;;;22.74;48.86;102139.53;5058421;28;45415;-58
2021/09/01 00:52:46;;;;;;;;;15.25;15.25;;;;;22.74;48.99;102132.47;5041087;28;45421;-58
2021/09/01 00:55:12;;;;;;;;;13.00;12.75;;;;;22.74;48.76;102132.47;5058484;28;45594;-54
2021/09/01 00:57:40;;;;;;;;;13.75;12.00;;;;;22.70;49.15;102136.16;5058473;28;45380;-56
2021/09/01 01:00:07;;;;;;;;;11.50;11.50;;;;;22.75;48.80;102141.25;5058138;28;45372;-54
2021/09/01 01:02:32;;;;;;;;;12.50;11.25;;;;;22.75;49.07;102130.66;5058556;28;45226;-56
2021/09/01 01:04:58;;;;;;;;;13.75;10.50;;;;;22.73;48.99;102135.16;5058705;28;45228;-52
2021/09/01 01:07:23;;;;;;;;;12.25;12.25;;;;;22.75;49.02;102142.13;5058062;28;46487;-53
2021/09/01 01:09:49;;;;;;;;;13.25;12.00;;;;;22.74;49.09;102143.03;5058608;28;46082;-51
2021/09/01 01:12:21;;;;;;;;;16.75;11.50;;;;;22.74;49.12;102139.53;5058647;28;45814;-53
2021/09/01 01:14:50;;;;;;;;;14.50;14.50;;;;;22.73;49.19;102141.31;5058806;28;45434;-54
2021/09/01 01:17:18;;;;;;;;;12.75;12.75;;;;;22.73;49.17;102141.31;5058535;28;46396;-54
2021/09/01 01:19:51;;;;;;;;;13.00;11.50;;;;;22.73;49.13;102127.22;5058208;28;45335;-53
2021/09/01 01:22:19;;;;;;;;;12.50;10.75;;;;;22.73;49.08;102128.09;5058505;28;45252;-55
2021/09/01 01:24:47;;;;;;;;;13.00;11.25;;;;;22.74;48.96;102135.13;5058489;28;45494;-54
2021/09/01 01:27:30;;;;;;;;;14.75;11.25;;;;;22.74;49.09;102127.19;5057782;28;47545;-53
2021/09/01 01:30:08;;;;;;;;;14.00;12.25;;;;;22.73;49.27;102133.38;5058045;28;45260;-56
2021/09/01 01:32:33;;;;;;;;;13.00;11.75;;;;;22.72;49.02;102126.38;5058126;28;45520;-55
2021/09/01 01:34:58;;;;;;;;;12.50;12.50;;;;;22.72;49.22;102120.22;5058393;28;45636;-56
2021/09/01 01:37:24;;;;;;;;;11.75;10.50;;;;;22.73;49.15;102128.09;5057720;28;46948;-56
2021/09/01 01:39:49;;;;;;;;;13.00;11.50;;;;;22.72;49.14;102125.50;5058137;28;45397;-57
2021/09/01 01:42:14;;;;;;;;;12.25;11.00;;;;;22.73;49.05;102125.47;5056739;28;45343;-59
2021/09/01 01:44:40;;;;;;;;;10.25;10.25;;;;;22.72;49.14;102131.66;5057944;28;45624;-56
2021/09/01 01:47:05;;;;;;;;;11.75;11.00;;;;;22.73;48.96;102133.38;5057240;28;45603;-56
2021/09/01 01:49:31;;;;;;;;;11.00;11.00;;;;;22.72;49.02;102129.03;5057789;28;45366;-55
2021/09/01 01:51:56;;;;;;;;;13.50;12.00;;;;;22.73;49.01;102138.69;5057676;28;45399;-58
2021/09/01 01:54:21;;;;;;;;;13.50;13.50;;;;;22.73;48.96;102129.88;5039700;28;45502;-54
2021/09/01 01:56:47;;;;;;;;;12.50;11.50;;;;;22.72;49.81;102126.38;5057373;28;45254;-57
2021/09/01 01:59:12;;;;;;;;;12.50;11.75;;;;;22.71;48.96;102124.66;5055926;28;46011;-56
2021/09/01 02:01:37;;;;;;;;;11.75;11.75;;;;;22.72;49.06;102125.50;5057573;28;45443;-57
2021/09/01 02:04:04;;;;;;;;;14.75;13.00;;;;;22.71;49.23;102124.66;5057620;28;45393;-50
2021/09/01 02:06:29;;;;;;;;;9.75;9.75;;;;;22.71;49.21;102124.66;5057162;28;45498;-58
2021/09/01 02:08:54;;;;;;;;;8.75;7.50;;;;;22.70;49.04;102133.53;5057279;28;45439;-55
2021/09/01 02:11:20;;;;;;;;;11.00;11.00;;;;;22.69;49.28;102118.59;5057599;28;45225;-56
2021/09/01 02:13:45;;;;;;;;;13.50;13.00;;;;;22.71;49.21;102137.88;5057547;28;45591;-58
2021/09/01 02:16:10;;;;;;;;;10.75;10.75;;;;;22.72;49.20;102141.38;5056592;28;52217;-52
2021/09/01 02:18:36;;;;;;;;;10.50;10.50;;;;;22.71;49.05;102137.88;5057083;28;45335;-55
2021/09/01 02:21:01;;;;;;;;;15.50;12.00;;;;;22.70;49.25;102144.97;5057358;28;45366;-57
2021/09/01 02:23:26;;;;;;;;;13.50;10.75;;;;;22.69;49.04;102145.00;5057393;28;45349;-58
2021/09/01 02:25:52;;;;;;;;;12.50;12.50;;;;;22.70;49.42;102147.59;5057217;28;45332;-55
2021/09/01 02:28:17;;;;;;;;;10.00;10.00;;;;;22.70;49.20;102150.25;5057021;28;45458;-54
2021/09/01 02:30:42;;;;;;;;;14.50;12.75;;;;;22.70;49.09;102147.59;5057268;28;45522;-58
2021/09/01 02:33:08;;;;;;;;;10.50;10.50;;;;;22.71;49.24;102145.81;5057179;28;45318;-56
2021/09/01 02:35:33;;;;;;;;;11.00;11.00;;;;;22.72;49.33;102147.53;5056920;28;46168;-58
2021/09/01 02:37:58;;;;;;;;;13.25;11.50;;;;;22.70;49.18;102144.97;5057009;28;45233;-60
2021/09/01 02:40:24;;;;;;;;;11.00;10.00;;;;;22.70;49.20;102141.44;5039286;28;46073;-53
2021/09/01 02:42:49;;;;;;;;;13.25;11.50;;;;;22.70;49.25;102144.09;5057284;28;45445;-56
2021/09/01 02:45:17;;;;;;;;;13.25;11.25;;;;;22.71;49.29;102145.81;5056776;28;46343;-61
2021/09/01 02:47:44;;;;;;;;;14.00;11.75;;;;;22.69;49.54;102145.88;5056763;28;45797;-59
2021/09/01 02:50:09;;;;;;;;;11.50;11.50;;;;;22.70;49.44;102146.72;5056960;28;45836;-61
2021/09/01 02:52:35;;;;;;;;;11.75;11.75;;;;;22.71;49.29;102148.44;5057015;28;45538;-55
2021/09/01 02:55:00;;;;;;;;;11.50;11.50;;;;;22.71;49.29;102156.38;5056699;28;46787;-61
2021/09/01 02:57:26;;;;;;;;;11.75;11.75;;;;;22.71;49.25;102151.09;5055633;28;45331;-58
2021/09/01 02:59:51;;;;;;;;;13.25;10.75;;;;;22.71;49.08;102143.16;5056875;28;45360;-57
2021/09/01 03:02:17;;;;;;;;;13.00;12.00;;;;;22.71;49.31;102156.38;5056818;28;45566;-58
2021/09/01 03:04:42;;;;;;;;;13.00;12.25;;;;;22.69;49.11;102148.53;5056375;28;45336;-63
2021/09/01 03:07:07;;;;;;;;;12.00;12.00;;;;;22.69;49.28;102153.81;5056347;28;45339;-63
2021/09/01 03:09:32;;;;;;;;;12.50;10.75;;;;;22.69;48.95;102150.28;5038407;28;45351;-63
2021/09/01 03:11:58;;;;;;;;;11.00;11.00;;;;;22.69;49.22;102148.53;5056489;28;45602;-61
2021/09/01 03:14:23;;;;;;;;;13.00;12.00;;;;;22.69;49.47;102153.81;5056764;28;46214;-61
2021/09/01 03:16:48;;;;;;;;;10.25;9.75;;;;;22.70;49.17;102149.38;5056340;28;45271;-59
2021/09/01 03:19:14;;;;;;;;;10.75;10.75;;;;;22.68;49.10;102146.81;5056429;28;45265;-55
2021/09/01 03:21:39;;;;;;;;;11.00;9.00;;;;;22.68;49.10;102145.94;5056503;28;45583;-55
2021/09/01 03:24:05;;;;;;;;;12.00;10.00;;;;;22.69;49.31;102142.38;5056052;28;46453;-53
2021/09/01 03:26:32;;;;;;;;;11.00;11.00;;;;;22.69;49.41;102148.53;5038017;28;45799;-57
2021/09/01 03:28:58;;;;;;;;;9.25;9.00;;;;;22.70;49.17;102149.38;5056294;28;45315;-58
2021/09/01 03:31:24;;;;;;;;;11.00;11.00;;;;;22.69;49.10;102147.66;5056699;28;45555;-56
2021/09/01 03:33:49;;;;;;;;;11.75;10.25;;;;;22.68;48.86;102140.66;5055777;28;52902;-54
2021/09/01 03:36:14;;;;;;;;;11.25;11.25;;;;;22.68;49.40;102140.66;5056220;28;45296;-59
2021/09/01 03:38:40;;;;;;;;;10.75;9.00;;;;;22.68;49.10;102136.25;5056106;28;45262;-53
2021/09/01 03:41:05;;;;;;;;;12.50;11.25;;;;;22.68;49.26;102127.44;5056295;28;45529;-57
2021/09/01 03:43:30;;;;;;;;;10.25;10.25;;;;;22.68;49.33;102130.06;5055956;28;46232;-56
2021/09/01 03:45:56;;;;;;;;;11.50;11.25;;;;;22.68;49.19;102138.88;5056265;28;45301;-57
2021/09/01 03:48:22;;;;;;;;;12.50;11.25;;;;;22.68;49.31;102136.25;5055670;28;45277;-53
2021/09/01 03:50:47;;;;;;;;;11.00;11.00;;;;;22.68;49.25;102148.56;5056278;28;45500;-56
2021/09/01 03:53:13;;;;;;;;;10.00;10.00;;;;;22.68;49.24;102151.22;5056080;28;45513;-59
2021/09/01 03:55:39;;;;;;;;;12.75;12.75;;;;;22.69;49.27;102153.81;5055766;28;45209;-54
2021/09/01 03:58:04;;;;;;;;;10.50;10.00;;;;;22.69;49.05;102152.94;5055854;28;45439;-56
2021/09/01 04:00:30;;;;;;;;;13.25;12.25;;;;;22.67;49.24;102146.84;5055816;28;45465;-54
2021/09/01 04:02:55;;;;;;;;;11.50;10.25;;;;;22.68;49.13;102143.28;5056012;28;46428;-49
2021/09/01 04:05:20;;;;;;;;;12.50;9.00;;;;;22.68;49.14;102151.22;5055652;28;45381;-57
2021/09/01 04:07:46;;;;;;;;;9.50;9.25;;;;;22.69;49.49;102147.66;5055781;28;45488;-58
2021/09/01 04:10:11;;;;;;;;;11.00;10.75;;;;;22.68;49.23;102140.66;5058816;28;45386;-52
2021/09/01 04:12:37;;;;;;;;;13.00;11.25;;;;;22.67;48.97;102145.09;5059094;28;45401;-57
2021/09/01 04:15:03;;;;;;;;;9.50;9.00;;;;;22.68;49.25;102143.28;5059086;28;45502;-58
2021/09/01 04:17:30;;;;;;;;;9.50;9.50;;;;;22.68;49.24;102148.56;5059106;28;45339;-52
2021/09/01 04:19:55;;;;;;;;;13.25;10.75;;;;;22.67;49.36;102144.22;5059661;28;45276;-54
2021/09/01 04:22:20;;;;;;;;;11.50;11.50;;;;;22.67;49.10;102149.50;5058917;28;45371;-58
2021/09/01 04:24:45;;;;;;;;;10.75;10.00;;;;;22.66;49.07;102150.41;5058874;28;45361;-55
2021/09/01 04:27:11;;;;;;;;;10.75;9.50;;;;;22.66;49.10;102146.00;5059148;28;45249;-58
2021/09/01 04:29:36;;;;;;;;;10.50;10.00;;;;;22.65;49.12;102133.72;5059252;28;45578;-56
2021/09/01 04:32:02;;;;;;;;;11.25;10.00;;;;;22.65;49.06;102133.72;5058830;28;46493;-52
2021/09/01 04:34:27;;;;;;;;;12.25;12.25;;;;;22.65;49.18;102144.28;5059084;28;45285;-54
2021/09/01 04:36:52;;;;;;;;;12.25;11.00;;;;;22.65;48.96;102148.72;5058831;28;45347;-55
2021/09/01 04:39:18;;;;;;;;;13.00;12.00;;;;;22.64;49.07;102147.00;5059094;28;45323;-55
2021/09/01 04:41:44;;;;;;;;;10.75;10.75;;;;;22.66;49.08;102155.72;5058542;28;46264;-56
2021/09/01 04:44:09;;;;;;;;;14.25;13.00;;;;;22.64;48.95;102158.44;5040529;28;45170;-61
2021/09/01 04:46:34;;;;;;;;;14.50;12.50;;;;;22.63;49.03;102162.00;5058847;28;45475;-60
2021/09/01 04:49:00;;;;;;;;;12.50;11.25;;;;;22.64;49.04;102163.72;5059168;28;45581;-53
2021/09/01 04:51:25;;;;;;;;;12.00;11.25;;;;;22.65;49.06;102164.59;5058766;28;46252;-56
2021/09/01 04:53:50;;;;;;;;;10.50;9.75;;;;;22.62;49.04;102159.44;5058670;28;45663;-56
2021/09/01 04:56:16;;;;;;;;;14.75;13.50;;;;;22.65;49.18;102172.53;5058578;28;45324;-54
2021/09/01 04:58:41;;;;;;;;;14.75;14.00;;;;;22.61;48.93;102161.19;5058393;28;45372;-63
2021/09/01 05:01:06;;;;;;;;;13.00;12.50;;;;;22.65;48.91;102177.81;5057955;28;55391;-64
2021/09/01 05:03:32;;;;;;;;;11.50;11.00;;;;;22.63;49.09;102163.78;5040198;28;46041;-60
2021/09/01 05:05:57;;;;;;;;;13.00;13.00;;;;;22.64;48.93;102163.72;5058805;28;45411;-55
2021/09/01 05:08:23;;;;;;;;;13.00;10.00;;;;;22.63;49.34;102164.63;5058685;28;45311;-54
2021/09/01 05:10:48;;;;;;;;;13.25;12.75;;;;;22.63;49.10;102163.78;5058156;28;45380;-57
2021/09/01 05:13:14;;;;;;;;;13.75;11.50;;;;;22.64;49.13;102165.50;5058129;28;45467;-58
2021/09/01 05:15:40;;;;;;;;;14.25;12.75;;;;;22.63;49.13;102159.34;5058125;28;45211;-54
2021/09/01 05:18:05;;;;;;;;;14.25;13.00;;;;;22.64;48.79;102165.50;5058590;28;45637;-55
2021/09/01 05:20:39;;;;;;;;;13.25;12.00;;;;;22.64;49.01;102165.50;5056361;28;48182;-56
2021/09/01 05:23:07;;;;;;;;;13.75;12.50;;;;;22.64;48.82;102165.50;5058274;28;45913;-53
2021/09/01 05:26:06;;;;;;;;;8.75;7.75;;;;;22.63;48.94;102161.16;5058270;28;45244;-53
2021/09/01 05:28:34;;;;;;;;;14.25;11.75;;;;;22.61;48.94;102166.47;5054400;28;45345;-54
2021/09/01 05:31:03;;;;;;;;;12.50;11.75;;;;;22.63;48.89;102161.16;5058126;28;46861;-52
2021/09/01 05:33:31;;;;;;;;;12.00;12.00;;;;;22.63;48.94;102171.72;5058295;28;45478;-54
2021/09/01 05:35:57;;;;;;;;;14.75;14.00;;;;;22.63;48.94;102174.38;5058150;28;45399;-52
2021/09/01 05:38:23;;;;;;;;;15.50;15.25;;;;;22.62;49.06;102172.63;5058269;28;45521;-52
2021/09/01 05:40:50;;;;;;;;;13.75;13.00;;;;;22.62;49.14;102167.34;5057792;28;45445;-56
2021/09/01 05:43:18;;;;;;;;;12.25;12.25;;;;;22.62;49.22;102167.34;5057800;28;45813;-52
2021/09/01 05:45:48;;;;;;;;;11.75;11.50;;;;;22.62;49.06;102178.78;5057434;28;45309;-56
2021/09/01 05:48:13;;;;;;;;;12.50;11.50;;;;;22.63;49.16;102190.22;5057857;28;45788;-52
2021/09/01 05:50:43;;;;;;;;;14.50;13.75;;;;;22.64;48.85;102189.28;5057756;28;45427;-55
2021/09/01 05:53:09;;;;;;;;;11.25;11.25;;;;;22.63;48.86;102193.72;5057831;28;45395;-53
2021/09/01 05:55:38;;;;;;;;;10.50;10.00;;;;;22.63;48.76;102193.72;5057658;28;45332;-51
2021/09/01 05:58:03;;;;;;;;;11.50;10.50;;;;;22.63;48.92;102190.22;5058245;28;45988;-56
2021/09/01 06:00:35;;;;;;;;;12.50;12.25;;;;;22.63;49.03;102195.50;5057647;28;45397;-59
2021/09/01 06:03:29;;;;;;;;;11.25;11.25;;;;;22.63;48.95;102192.84;5057737;28;45355;-54
2021/09/01 06:05:57;;;;;;;;;12.75;11.00;;;;;22.65;48.88;102201.59;5057721;28;45498;-53
2021/09/01 06:08:24;;;;;;;;;13.25;11.75;;;;;22.64;48.96;102195.44;5057513;28;45343;-53
2021/09/01 06:10:54;;;;;;;;;12.25;11.50;;;;;22.67;48.84;102205.00;5057209;28;46312;-55
2021/09/01 06:13:20;;;;;;;;;12.25;10.50;;;;;22.68;48.98;102189.09;5057218;28;45367;-57
2021/09/01 06:15:46;;;;;;;;;11.00;11.00;;;;;22.68;48.72;102185.56;5057401;28;45367;-55
2021/09/01 06:18:11;;;;;;;;;14.75;11.50;;;;;22.71;48.67;102182.81;5057470;28;45610;-55
2021/09/01 06:20:38;;;;;;;;;12.25;10.00;;;;;22.74;48.76;102181.81;5057011;28;45646;-58
2021/09/01 06:23:04;;;;;;;;;11.00;11.00;;;;;22.75;48.66;102184.41;5057341;28;45818;-58
2021/09/01 06:25:30;;;;;;;;;10.50;10.00;;;;;22.76;48.80;102186.13;5057289;28;45986;-60
2021/09/01 06:27:56;;;;;;;;;12.00;11.00;;;;;22.78;48.76;102188.69;5057258;28;45170;-58
2021/09/01 06:30:22;;;;;;;;;16.00;14.25;;;;;22.78;48.43;102178.13;5056975;28;45677;-57
2021/09/01 06:32:48;;;;;;;;;10.25;9.50;;;;;22.77;48.44;102174.59;5055714;28;45328;-58
2021/09/01 06:35:14;;;;;;;;;10.25;9.25;;;;;22.80;48.56;102176.28;5057018;28;45356;-56
2021/09/01 06:37:40;;;;;;;;;12.00;11.00;;;;;22.80;48.48;102182.41;5057180;28;45492;-54
2021/09/01 06:40:07;;;;;;;;;12.75;11.25;;;;;22.82;48.26;102179.72;5056957;28;46171;-54
2021/09/01 06:42:32;;;;;;;;;13.00;10.75;;;;;22.82;48.08;102169.97;5057004;28;45388;-53
2021/09/01 06:44:58;;;;;;;;;12.00;12.00;;;;;22.84;48.40;102176.06;5056922;28;45356;-55
2021/09/01 06:47:23;;;;;;;;;10.25;10.00;;;;;22.84;48.30;102168.13;5056959;28;45522;-54
2021/09/01 06:49:48;;;;;;;;;11.25;10.00;;;;;22.86;48.27;102181.28;5056628;28;45443;-53
2021/09/01 06:52:14;;;;;;;;;16.00;12.75;;;;;22.88;48.25;102178.56;5056484;28;45376;-52
2021/09/01 06:54:39;;;;;;;;;9.00;9.00;;;;;22.86;48.39;102173.34;5056931;28;45302;-51
2021/09/01 06:57:05;;;;;;;;;11.00;11.00;;;;;22.91;48.40;102181.94;5057260;28;45640;-55
2021/09/01 06:59:30;;;;;;;;;14.50;13.00;;;;;22.91;48.16;102181.06;5056359;28;45588;-50
2021/09/01 07:01:56;;;;;;;;;12.00;11.00;;;;;22.93;48.25;102182.72;5056688;28;45194;-57
2021/09/01 07:04:21;;;;;;;;;14.00;12.25;;;;;22.96;48.15;102187.03;5038584;28;45651;-53
2021/09/01 07:06:47;;;;;;;;;17.25;14.25;;;;;22.95;47.98;102182.66;5056829;28;45194;-55
2021/09/01 07:09:12;;;;;;;;;12.50;11.00;;;;;22.97;48.27;102183.47;5056448;28;45659;-55
2021/09/01 07:11:38;;;;;;;;;13.50;10.50;;;;;22.98;48.09;102171.97;5056440;28;45347;-53
2021/09/01 07:14:03;;;;;;;;;12.25;10.00;;;;;22.98;48.18;102169.31;5056827;28;45362;-55
2021/09/01 07:16:28;;;;;;;;;13.50;11.50;;;;;22.99;48.32;102160.44;5038824;28;45575;-53
2021/09/01 07:18:54;;;;;;;;;17.50;13.75;;;;;23.01;48.06;102170.03;5056173;28;46483;-55
2021/09/01 07:21:19;;;;;;;;;13.50;12.00;;;;;23.00;48.05;102163.03;5056514;28;45497;-55
2021/09/01 07:23:45;;;;;;;;;15.00;10.50;;;;;23.01;48.32;102170.03;5056499;28;45500;-57
2021/09/01 07:26:11;;;;;;;;;18.25;12.00;;;;;22.99;47.91;102161.31;5056482;28;45494;-53
2021/09/01 07:28:40;;;;;;;;;17.00;12.75;;;;;23.03;48.23;102159.38;5056429;28;46656;-59
2021/09/01 07:31:07;;;;;;;;;12.25;12.25;;;;;23.04;48.09;102162.91;5056533;28;45239;-56
2021/09/01 07:33:33;;;;;;;;;9.25;9.25;;;;;23.05;47.89;102159.28;5056440;28;45257;-56
2021/09/01 07:35:59;;;;;;;;;12.75;11.25;;;;;23.04;48.02;102152.31;5038488;28;45236;-55
2021/09/01 07:38:24;;;;;;;;;12.00;12.00;;;;;23.04;48.05;102155.81;5056077;28;46346;-55
2021/09/01 07:40:49;;;;;;;;;13.00;12.00;;;;;23.05;47.81;102164.59;5056190;28;45520;-58
2021/09/01 07:43:15;;;;;;;;;18.50;15.50;;;;;23.06;47.31;102161.88;5056294;28;45887;-57
2021/09/01 07:45:42;;;;;;;;;24.25;20.50;;;;;23.00;46.97;102162.16;5060037;28;45656;-55
2021/09/01 07:48:11;;;;;;;;;20.00;18.75;;;;;22.92;47.07;102164.28;5059892;28;46523;-57
2021/09/01 07:50:37;;;;;;;;;21.25;17.00;;;;;22.83;47.11;102165.53;5059838;28;45257;-56
2021/09/01 07:53:02;;;;;;;;;21.25;19.00;;;;;22.74;47.25;102172.13;5059836;28;45355;-59
2021/09/01 07:55:28;;;;;;;;;19.25;18.50;;;;;22.67;47.31;102175.94;5059851;28;45221;-57
2021/09/01 07:57:53;;;;;;;;;21.75;19.25;;;;;22.58;47.63;102174.56;5059457;28;46648;-56
2021/09/01 08:00:18;;;;;;;;;20.00;19.50;;;;;22.53;47.24;102164.19;5059403;28;45391;-59
2021/09/01 08:02:44;;;;;;;;;21.00;18.25;;;;;22.48;47.58;102173.25;5058381;28;45351;-58
2021/09/01 08:05:09;;;;;;;;;23.50;22.00;;;;;22.39;47.75;102166.53;5060014;28;45468;-58
2021/09/01 08:07:35;;;;;;;;;19.75;19.00;;;;;22.36;47.77;102174.56;5059139;28;45407;-58
2021/09/01 08:10:01;;;;;;;;;22.75;20.25;;;;;22.29;47.85;102165.19;5059501;28;45497;-57
2021/09/01 08:12:27;;;;;;;;;26.50;22.75;;;;;22.26;47.73;102160.03;5059426;28;45426;-57
2021/09/01 08:14:52;;;;;;;;;21.75;21.00;;;;;22.21;47.93;102163.72;5059717;28;45475;-57
2021/09/01 08:17:18;;;;;;;;;21.50;19.50;;;;;22.18;48.03;102168.25;5059160;28;45590;-56
2021/09/01 08:19:45;;;;;;;;;24.50;22.00;;;;;22.14;47.86;102171.97;5041153;28;45907;-56
2021/09/01 08:22:11;;;;;;;;;22.00;20.25;;;;;22.10;48.18;102160.69;5041707;28;45197;-57
2021/09/01 08:24:38;;;;;;;;;24.50;22.75;;;;;22.08;47.89;102168.66;5059582;28;45296;-57
2021/09/01 08:27:08;;;;;;;;;30.25;26.00;;;;;22.04;48.13;102171.47;5059043;28;47519;-56
2021/09/01 08:29:33;;;;;;;;;27.25;22.00;;;;;22.02;47.92;102168.91;5059081;28;45876;-57
2021/09/01 08:31:59;;;;;;;;;22.00;21.00;;;;;22.01;48.35;102171.59;5057911;28;45364;-57
2021/09/01 08:34:25;;;;;;;;;22.75;22.00;;;;;21.98;48.23;102171.75;5059240;28;45312;-57
2021/09/01 08:36:50;;;;;;;;;21.75;20.25;;;;;21.97;48.39;102170.88;5058625;28;46602;-60
2021/09/01 08:39:16;;;;;;;;;22.25;21.75;;;;;21.97;48.43;102176.16;5058727;28;45363;-59
2021/09/01 08:41:42;;;;;;;;;26.50;24.50;;;;;21.96;48.17;102168.31;5059197;28;45220;-66
2021/09/01 08:44:08;;;;;;;;;25.00;22.75;;;;;21.92;48.50;102167.56;5059518;28;45312;-58
2021/09/01 08:46:34;;;;;;;;;24.00;23.00;;;;;21.91;48.33;102161.41;5058727;28;45247;-55
2021/09/01 08:49:01;;;;;;;;;24.00;21.50;;;;;21.93;48.52;102169.28;5058661;28;45367;-57
2021/09/01 08:51:29;;;;;;;;;30.75;26.75;;;;;21.93;48.12;102170.13;5058900;28;45281;-55
2021/09/01 08:53:56;;;;;;;;;28.75;24.50;;;;;21.96;48.57;102178.84;5058939;28;45578;-49
2021/09/01 08:56:22;;;;;;;;;27.25;24.50;;;;;21.92;48.64;102168.41;5039285;28;47845;-48
2021/09/01 08:58:47;;;;;;;;;25.75;24.25;;;;;21.93;48.77;102175.41;5058525;28;45277;-53
2021/09/01 09:01:43;;;;;;;;;26.00;22.50;;;;;21.93;48.31;102175.41;5058927;28;45296;-53
2021/09/01 09:04:18;;;;;;;;;26.75;23.75;;;;;21.93;48.44;102175.41;5059055;28;45467;-54
2021/09/01 09:06:43;;;;;;;;;19.00;18.50;;;;;21.97;48.67;102177.94;5058294;28;46320;-54
2021/09/01 09:09:12;;;;;;;;;23.25;21.75;;;;;22.02;48.60;102173.31;5058791;28;45307;-53
2021/09/01 09:11:38;;;;;;;;;23.25;18.00;;;;;22.07;48.68;102164.28;5058602;28;45446;-54
2021/09/01 09:14:23;;;;;;;;;18.00;18.00;;;;;22.11;48.42;102164.16;5058652;28;45879;-52
2021/09/01 09:17:09;;;;;;;;;20.00;17.25;;;;;22.17;48.69;102163.91;5058200;28;45285;-53
2021/09/01 09:20:04;;;;;;;;;22.25;16.75;;;;;22.21;48.51;102169.00;5058186;28;45387;-52
2021/09/01 09:22:32;;;;;;;;;17.50;17.50;;;;;22.24;48.56;102166.22;5058283;28;45783;-54
2021/09/01 09:25:09;;;;;;;;;24.75;21.50;;;;;22.29;48.83;102170.47;5058279;28;45564;-53
2021/09/01 09:27:59;;;;;;;;;20.75;17.50;;;;;22.32;48.98;102170.34;5057901;28;46506;-53
2021/09/01 09:30:27;;;;;;;;;21.75;18.25;;;;;22.32;48.66;102186.19;5058023;28;45546;-54
2021/09/01 09:33:10;;;;;;;;;20.00;18.25;;;;;22.34;48.65;102166.72;5058176;28;45284;-59
2021/09/01 09:36:01;;;;;;;;;17.50;17.00;;;;;22.37;48.48;102168.38;5058323;28;45336;-51
2021/09/01 09:38:42;;;;;;;;;20.00;18.00;;;;;22.38;48.45;102162.16;5057681;28;46151;-56
2021/09/01 09:41:30;;;;;;;;;19.50;17.25;;;;;22.39;48.57;102155.97;5057877;28;45739;-66
2021/09/01 09:44:03;;;;;;;;;18.75;18.00;;;;;22.41;48.57;102158.56;5057857;28;45313;-58
2021/09/01 09:46:28;;;;;;;;;22.50;19.25;;;;;22.42;48.32;102153.22;5057974;28;45427;-56
2021/09/01 09:49:06;;;;;;;;;23.75;19.75;;;;;22.42;48.13;102155.88;5057556;28;46122;-58
2021/09/01 09:51:41;;;;;;;;;19.75;16.50;;;;;22.45;48.18;102161.00;5057566;28;45957;-56
2021/09/01 09:54:36;;;;;;;;;19.00;17.00;;;;;22.46;48.37;102162.72;5057761;28;45316;-52
2021/09/01 09:57:09;;;;;;;;;21.00;17.50;;;;;22.47;47.94;102158.31;5044642;28;45368;-51
2021/09/01 09:59:36;;;;;;;;;18.00;16.00;;;;;22.49;48.15;102167.88;5055879;28;45711;-53
2021/09/01 10:02:02;;;;;;;;;22.50;17.50;;;;;22.48;48.03;102158.22;5022861;28;45794;-59
2021/09/01 10:04:28;;;;;;;;;19.25;16.50;;;;;22.49;48.19;102162.59;5057500;28;45324;-55
2021/09/01 10:06:54;;;;;;;;;17.00;16.50;;;;;22.50;48.22;102156.38;5057358;28;45361;-52
2021/09/01 10:09:20;;;;;;;;;18.75;16.25;;;;;22.51;48.40;102159.88;5057256;28;45627;-55
2021/09/01 10:11:47;;;;;;;;;17.25;17.25;;;;;22.51;48.37;102166.03;5057959;28;45252;-52
2021/09/01 10:14:19;;;;;;;;;17.00;17.00;;;;;22.52;48.20;102164.25;5057853;28;45277;-55
2021/09/01 10:16:51;;;;;;;;;18.25;17.75;;;;;22.52;48.75;102149.25;5058025;28;45425;-57
2021/09/01 10:19:18;;;;;;;;;21.00;18.50;;;;;22.53;48.67;102148.34;5057574;28;46214;-58
2021/09/01 10:21:50;;;;;;;;;18.50;18.50;;;;;22.53;48.38;102145.69;5057383;28;45846;-63
2021/09/01 10:24:17;;;;;;;;;20.25;17.25;;;;;22.54;48.56;102144.75;5057626;28;45402;-59
2021/09/01 10:26:58;;;;;;;;;17.75;16.25;;;;;22.54;48.75;102139.47;5057497;28;45474;-59
2021/09/01 10:29:47;;;;;;;;;19.00;19.00;;;;;22.56;48.61;102147.34;5056678;28;46568;-61
2021/09/01 10:32:21;;;;;;;;;20.25;17.75;;;;;22.59;48.51;102148.97;5040520;28;45289;-63
2021/09/01 10:34:47;;;;;;;;;21.75;18.50;;;;;22.59;48.65;102139.28;5057463;28;45440;-57
2021/09/01 10:37:43;;;;;;;;;24.25;21.75;;;;;22.62;48.28;102138.28;5057391;28;45545;-60
2021/09/01 10:40:33;;;;;;;;;25.25;16.50;;;;;22.65;48.25;102132.88;5055710;28;47342;-58
2021/09/01 10:43:02;;;;;;;;;31.25;27.00;;;;;22.65;48.23;102135.53;5056779;28;45868;-63
2021/09/01 10:45:30;;;;;;;;;59.50;46.00;;;;;22.67;48.31;102118.66;5056962;28;45411;-60
2021/09/01 10:47:58;;;;;;;;;197.50;165.25;;;;;22.69;48.80;102115.94;5056923;28;45561;-54
2021/09/01 10:50:37;;;;;;;;;78.75;62.00;;;;;22.70;48.44;102115.91;5056401;28;45474;-55
2021/09/01 10:53:18;;;;;;;;;88.25;76.00;;;;;22.72;48.50;102121.09;5056501;28;45324;-58
2021/09/01 10:55:56;;;;;;;;;107.00;89.25;;;;;22.72;48.50;102115.81;5038802;28;45325;-57
2021/09/01 10:58:41;;;;;;;;;121.75;103.00;;;;;22.73;48.81;102114.88;5056908;28;45397;-59
2021/09/01 11:01:08;;;;;;;;;129.75;106.00;;;;;22.75;48.68;102114.81;5056261;28;46431;-56
2021/09/01 11:03:40;;;;;;;;;109.50;94.00;;;;;22.75;48.65;102110.41;5056380;28;45418;-57
2021/09/01 11:06:16;;;;;;;;;112.75;88.00;;;;;22.78;48.72;102114.69;5056535;28;45346;-66
2021/09/01 11:08:56;;;;;;;;;101.00;82.25;;;;;22.79;48.72;102106.69;5056652;28;45378;-53
2021/09/01 11:11:21;;;;;;;;;93.75;77.00;;;;;22.80;48.34;102102.25;5056374;28;46521;-57
2021/09/01 11:13:47;;;;;;;;;97.75;82.75;;;;;22.79;48.66;102088.16;5038630;28;45293;-58